sensor_id;sensor_type;location;lat;lon;timestamp;P1;durP1;ratioP1;P2;durP2;ratioP2
60896;SDS011;46749;32.932;-117.130;2023-07-13T00:01:29;2.90;;;1.00;;
60896;SDS011;46749;32.932;-117.130;2023-07-13T00:03:56;2.30;;;1.15;;
60896;SDS011;46749;32.932;-117.130;2023-07-13T00:06:23;1.27;;;0.80;;
60896;SDS011;46749;32.932;-117.130;2023-07-13T00:08:49;1.63;;;1.17;;
60896;SDS011;46749;32.932;-117.130;2023-07-13T00:11:16;2.00;;;0.93;;
60896;SDS011;46749;32.932;-117.130;2023-07-13T00:13:43;3.03;;;1.25;;
60896;SDS011;46749;32.932;-117.130;2023-07-13T00:16:10;3.00;;;1.50;;
60896;SDS011;46749;32.932;-117.130;2023-07-13T00:18:38;3.03;;;0.98;;
60896;SDS011;46749;32.932;-117.130;2023-07-13T00:21:05;3.40;;;1.00;;
60896;SDS011;46749;32.932;-117.130;2023-07-13T00:23:33;2.05;;;1.20;;
60896;SDS011;46749;32.932;-117.130;2023-07-13T00:26:00;2.15;;;0.95;;
60896;SDS011;46749;32.932;-117.130;2023-07-13T00:28:30;3.80;;;1.45;;
60896;SDS011;46749;32.932;-117.130;2023-07-13T00:30:57;2.80;;;1.02;;
60896;SDS011;46749;32.932;-117.130;2023-07-13T00:33:23;2.60;;;1.00;;
60896;SDS011;46749;32.932;-117.130;2023-07-13T00:35:50;1.48;;;0.82;;
60896;SDS011;46749;32.932;-117.130;2023-07-13T00:38:16;2.85;;;0.85;;
60896;SDS011;46749;32.932;-117.130;2023-07-13T00:40:42;2.05;;;1.10;;
60896;SDS011;46749;32.932;-117.130;2023-07-13T00:43:19;2.42;;;1.05;;
60896;SDS011;46749;32.932;-117.130;2023-07-13T00:48:15;2.75;;;0.93;;
60896;SDS011;46749;32.932;-117.130;2023-07-13T00:50:46;3.10;;;1.00;;
60896;SDS011;46749;32.932;-117.130;2023-07-13T00:53:18;2.47;;;1.30;;
60896;SDS011;46749;32.932;-117.130;2023-07-13T00:55:46;3.63;;;1.30;;
60896;SDS011;46749;32.932;-117.130;2023-07-13T00:58:15;2.75;;;1.20;;
60896;SDS011;46749;32.932;-117.130;2023-07-13T01:00:42;3.30;;;1.08;;
60896;SDS011;46749;32.932;-117.130;2023-07-13T01:03:08;4.43;;;1.00;;
60896;SDS011;46749;32.932;-117.130;2023-07-13T01:05:35;3.15;;;1.17;;
60896;SDS011;46749;32.932;-117.130;2023-07-13T01:08:02;3.53;;;1.45;;
60896;SDS011;46749;32.932;-117.130;2023-07-13T01:10:32;3.45;;;1.30;;
60896;SDS011;46749;32.932;-117.130;2023-07-13T01:13:07;3.97;;;1.17;;
60896;SDS011;46749;32.932;-117.130;2023-07-13T01:18:09;3.22;;;1.10;;
60896;SDS011;46749;32.932;-117.130;2023-07-13T01:20:38;3.40;;;1.20;;
60896;SDS011;46749;32.932;-117.130;2023-07-13T01:23:05;3.75;;;1.48;;
60896;SDS011;46749;32.932;-117.130;2023-07-13T01:25:34;3.13;;;1.00;;
60896;SDS011;46749;32.932;-117.130;2023-07-13T01:28:02;2.60;;;1.17;;
60896;SDS011;46749;32.932;-117.130;2023-07-13T01:30:29;3.63;;;1.30;;
60896;SDS011;46749;32.932;-117.130;2023-07-13T01:32:57;2.65;;;1.20;;
60896;SDS011;46749;32.932;-117.130;2023-07-13T01:35:24;2.10;;;1.15;;
60896;SDS011;46749;32.932;-117.130;2023-07-13T01:37:52;1.92;;;1.00;;
60896;SDS011;46749;32.932;-117.130;2023-07-13T01:40:19;2.85;;;1.10;;
60896;SDS011;46749;32.932;-117.130;2023-07-13T01:42:46;3.38;;;1.30;;
60896;SDS011;46749;32.932;-117.130;2023-07-13T01:45:12;3.28;;;1.38;;
60896;SDS011;46749;32.932;-117.130;2023-07-13T01:47:38;3.60;;;1.30;;
60896;SDS011;46749;32.932;-117.130;2023-07-13T01:50:04;3.20;;;1.20;;
60896;SDS011;46749;32.932;-117.130;2023-07-13T01:52:31;1.98;;;1.15;;
60896;SDS011;46749;32.932;-117.130;2023-07-13T01:54:57;3.45;;;1.33;;
60896;SDS011;46749;32.932;-117.130;2023-07-13T01:57:23;3.67;;;1.35;;
60896;SDS011;46749;32.932;-117.130;2023-07-13T01:59:49;3.70;;;1.23;;
60896;SDS011;46749;32.932;-117.130;2023-07-13T02:02:15;2.88;;;1.42;;
60896;SDS011;46749;32.932;-117.130;2023-07-13T02:04:42;3.17;;;1.20;;
60896;SDS011;46749;32.932;-117.130;2023-07-13T02:07:09;2.55;;;1.33;;
60896;SDS011;46749;32.932;-117.130;2023-07-13T02:09:35;3.42;;;1.20;;
60896;SDS011;46749;32.932;-117.130;2023-07-13T02:12:01;2.50;;;1.30;;
60896;SDS011;46749;32.932;-117.130;2023-07-13T02:14:28;3.70;;;1.50;;
60896;SDS011;46749;32.932;-117.130;2023-07-13T02:16:54;2.92;;;1.40;;
60896;SDS011;46749;32.932;-117.130;2023-07-13T02:19:20;3.92;;;1.30;;
60896;SDS011;46749;32.932;-117.130;2023-07-13T02:21:47;2.88;;;1.50;;
60896;SDS011;46749;32.932;-117.130;2023-07-13T02:24:13;2.80;;;1.10;;
60896;SDS011;46749;32.932;-117.130;2023-07-13T02:26:43;4.80;;;1.48;;
60896;SDS011;46749;32.932;-117.130;2023-07-13T02:29:09;3.22;;;1.40;;
60896;SDS011;46749;32.932;-117.130;2023-07-13T02:31:36;3.08;;;1.20;;
60896;SDS011;46749;32.932;-117.130;2023-07-13T02:34:02;2.65;;;1.63;;
60896;SDS011;46749;32.932;-117.130;2023-07-13T02:36:29;2.47;;;1.08;;
60896;SDS011;46749;32.932;-117.130;2023-07-13T02:38:57;1.67;;;1.00;;
60896;SDS011;46749;32.932;-117.130;2023-07-13T02:41:26;3.08;;;1.65;;
60896;SDS011;46749;32.932;-117.130;2023-07-13T02:43:52;2.42;;;1.25;;
60896;SDS011;46749;32.932;-117.130;2023-07-13T02:46:19;2.25;;;1.15;;
60896;SDS011;46749;32.932;-117.130;2023-07-13T02:48:45;3.15;;;1.30;;
60896;SDS011;46749;32.932;-117.130;2023-07-13T02:51:11;3.83;;;1.60;;
60896;SDS011;46749;32.932;-117.130;2023-07-13T02:53:38;1.98;;;1.10;;
60896;SDS011;46749;32.932;-117.130;2023-07-13T02:56:04;3.80;;;1.30;;
60896;SDS011;46749;32.932;-117.130;2023-07-13T02:58:32;3.10;;;1.20;;
60896;SDS011;46749;32.932;-117.130;2023-07-13T03:01:05;2.35;;;1.30;;
60896;SDS011;46749;32.932;-117.130;2023-07-13T03:03:35;2.17;;;1.33;;
60896;SDS011;46749;32.932;-117.130;2023-07-13T03:06:03;2.70;;;1.30;;
60896;SDS011;46749;32.932;-117.130;2023-07-13T03:08:31;2.15;;;1.10;;
60896;SDS011;46749;32.932;-117.130;2023-07-13T03:11:04;4.38;;;1.50;;
60896;SDS011;46749;32.932;-117.130;2023-07-13T03:13:36;2.72;;;1.23;;
60896;SDS011;46749;32.932;-117.130;2023-07-13T03:16:03;2.10;;;1.13;;
60896;SDS011;46749;32.932;-117.130;2023-07-13T03:18:31;2.17;;;1.10;;
60896;SDS011;46749;32.932;-117.130;2023-07-13T03:20:57;3.33;;;1.00;;
60896;SDS011;46749;32.932;-117.130;2023-07-13T03:23:24;3.60;;;1.40;;
60896;SDS011;46749;32.932;-117.130;2023-07-13T03:26:00;3.30;;;1.30;;
60896;SDS011;46749;32.932;-117.130;2023-07-13T03:28:27;2.13;;;1.10;;
60896;SDS011;46749;32.932;-117.130;2023-07-13T03:31:04;2.97;;;1.02;;
60896;SDS011;46749;32.932;-117.130;2023-07-13T03:33:33;2.33;;;1.05;;
60896;SDS011;46749;32.932;-117.130;2023-07-13T03:36:00;2.42;;;1.20;;
60896;SDS011;46749;32.932;-117.130;2023-07-13T03:38:27;2.20;;;1.10;;
60896;SDS011;46749;32.932;-117.130;2023-07-13T03:40:53;3.05;;;1.38;;
60896;SDS011;46749;32.932;-117.130;2023-07-13T03:43:19;2.33;;;1.20;;
60896;SDS011;46749;32.932;-117.130;2023-07-13T03:45:46;2.35;;;1.25;;
60896;SDS011;46749;32.932;-117.130;2023-07-13T03:48:12;2.95;;;1.17;;
60896;SDS011;46749;32.932;-117.130;2023-07-13T03:50:39;3.15;;;1.00;;
60896;SDS011;46749;32.932;-117.130;2023-07-13T03:53:05;1.38;;;0.88;;
60896;SDS011;46749;32.932;-117.130;2023-07-13T03:55:31;1.98;;;1.00;;
60896;SDS011;46749;32.932;-117.130;2023-07-13T03:57:59;1.80;;;1.10;;
60896;SDS011;46749;32.932;-117.130;2023-07-13T04:00:45;2.15;;;1.10;;
60896;SDS011;46749;32.932;-117.130;2023-07-13T04:03:12;1.50;;;1.08;;
60896;SDS011;46749;32.932;-117.130;2023-07-13T04:05:38;2.35;;;1.10;;
60896;SDS011;46749;32.932;-117.130;2023-07-13T04:08:06;2.80;;;1.13;;
60896;SDS011;46749;32.932;-117.130;2023-07-13T04:10:32;2.63;;;1.20;;
60896;SDS011;46749;32.932;-117.130;2023-07-13T04:12:58;2.72;;;1.10;;
60896;SDS011;46749;32.932;-117.130;2023-07-13T04:15:24;1.83;;;1.08;;
60896;SDS011;46749;32.932;-117.130;2023-07-13T04:17:51;2.13;;;1.02;;
60896;SDS011;46749;32.932;-117.130;2023-07-13T04:20:17;2.22;;;1.00;;
60896;SDS011;46749;32.932;-117.130;2023-07-13T04:22:45;2.75;;;1.05;;
60896;SDS011;46749;32.932;-117.130;2023-07-13T04:25:12;1.52;;;0.90;;
60896;SDS011;46749;32.932;-117.130;2023-07-13T04:27:38;2.17;;;1.40;;
60896;SDS011;46749;32.932;-117.130;2023-07-13T04:30:05;1.58;;;1.00;;
60896;SDS011;46749;32.932;-117.130;2023-07-13T04:32:32;1.50;;;1.20;;
60896;SDS011;46749;32.932;-117.130;2023-07-13T04:34:58;2.22;;;1.08;;
60896;SDS011;46749;32.932;-117.130;2023-07-13T04:37:25;1.73;;;1.00;;
60896;SDS011;46749;32.932;-117.130;2023-07-13T04:39:52;2.05;;;0.75;;
60896;SDS011;46749;32.932;-117.130;2023-07-13T04:42:18;1.65;;;1.00;;
60896;SDS011;46749;32.932;-117.130;2023-07-13T04:44:51;2.28;;;0.90;;
60896;SDS011;46749;32.932;-117.130;2023-07-13T04:47:17;1.30;;;0.98;;
60896;SDS011;46749;32.932;-117.130;2023-07-13T04:49:44;1.75;;;0.93;;
60896;SDS011;46749;32.932;-117.130;2023-07-13T04:52:11;2.47;;;1.02;;
60896;SDS011;46749;32.932;-117.130;2023-07-13T04:54:37;2.03;;;1.20;;
60896;SDS011;46749;32.932;-117.130;2023-07-13T04:57:04;1.63;;;0.98;;
60896;SDS011;46749;32.932;-117.130;2023-07-13T04:59:33;1.30;;;0.90;;
60896;SDS011;46749;32.932;-117.130;2023-07-13T05:02:00;2.95;;;0.95;;
60896;SDS011;46749;32.932;-117.130;2023-07-13T05:04:26;2.55;;;0.93;;
60896;SDS011;46749;32.932;-117.130;2023-07-13T05:06:53;2.50;;;1.20;;
60896;SDS011;46749;32.932;-117.130;2023-07-13T05:09:19;2.55;;;0.90;;
60896;SDS011;46749;32.932;-117.130;2023-07-13T05:11:45;2.55;;;1.15;;
60896;SDS011;46749;32.932;-117.130;2023-07-13T05:14:11;3.50;;;1.10;;
60896;SDS011;46749;32.932;-117.130;2023-07-13T05:16:37;1.65;;;1.17;;
60896;SDS011;46749;32.932;-117.130;2023-07-13T05:19:04;2.15;;;0.70;;
60896;SDS011;46749;32.932;-117.130;2023-07-13T05:21:30;2.60;;;1.15;;
60896;SDS011;46749;32.932;-117.130;2023-07-13T05:23:56;2.13;;;1.02;;
60896;SDS011;46749;32.932;-117.130;2023-07-13T05:26:22;1.40;;;0.98;;
60896;SDS011;46749;32.932;-117.130;2023-07-13T05:28:48;1.92;;;1.13;;
60896;SDS011;46749;32.932;-117.130;2023-07-13T05:31:14;2.58;;;1.02;;
60896;SDS011;46749;32.932;-117.130;2023-07-13T05:33:40;1.73;;;0.93;;
60896;SDS011;46749;32.932;-117.130;2023-07-13T05:36:07;3.15;;;1.00;;
60896;SDS011;46749;32.932;-117.130;2023-07-13T05:38:33;1.58;;;0.90;;
60896;SDS011;46749;32.932;-117.130;2023-07-13T05:41:00;2.25;;;0.90;;
60896;SDS011;46749;32.932;-117.130;2023-07-13T05:43:26;2.47;;;0.85;;
60896;SDS011;46749;32.932;-117.130;2023-07-13T05:45:53;1.25;;;0.90;;
60896;SDS011;46749;32.932;-117.130;2023-07-13T05:48:20;1.85;;;1.00;;
60896;SDS011;46749;32.932;-117.130;2023-07-13T05:50:46;1.73;;;1.05;;
60896;SDS011;46749;32.932;-117.130;2023-07-13T05:53:13;1.38;;;0.95;;
60896;SDS011;46749;32.932;-117.130;2023-07-13T05:55:42;1.50;;;1.00;;
60896;SDS011;46749;32.932;-117.130;2023-07-13T05:58:10;2.65;;;1.00;;
60896;SDS011;46749;32.932;-117.130;2023-07-13T06:00:36;3.45;;;1.00;;
60896;SDS011;46749;32.932;-117.130;2023-07-13T06:03:03;13.52;;;1.90;;
60896;SDS011;46749;32.932;-117.130;2023-07-13T06:05:29;65.97;;;31.48;;
60896;SDS011;46749;32.932;-117.130;2023-07-13T06:07:55;29.95;;;13.90;;
60896;SDS011;46749;32.932;-117.130;2023-07-13T06:10:21;15.43;;;5.35;;
60896;SDS011;46749;32.932;-117.130;2023-07-13T06:12:48;7.53;;;3.80;;
60896;SDS011;46749;32.932;-117.130;2023-07-13T06:15:14;8.48;;;2.90;;
60896;SDS011;46749;32.932;-117.130;2023-07-13T06:17:41;9.88;;;4.15;;
60896;SDS011;46749;32.932;-117.130;2023-07-13T06:20:07;9.95;;;4.25;;
60896;SDS011;46749;32.932;-117.130;2023-07-13T06:22:33;8.50;;;3.75;;
60896;SDS011;46749;32.932;-117.130;2023-07-13T06:24:59;10.50;;;4.78;;
60896;SDS011;46749;32.932;-117.130;2023-07-13T06:27:26;9.23;;;3.97;;
60896;SDS011;46749;32.932;-117.130;2023-07-13T06:29:52;8.70;;;3.70;;
60896;SDS011;46749;32.932;-117.130;2023-07-13T06:32:18;10.27;;;4.10;;
60896;SDS011;46749;32.932;-117.130;2023-07-13T06:34:44;7.38;;;3.75;;
60896;SDS011;46749;32.932;-117.130;2023-07-13T06:37:11;7.90;;;3.53;;
60896;SDS011;46749;32.932;-117.130;2023-07-13T06:39:37;6.57;;;3.67;;
60896;SDS011;46749;32.932;-117.130;2023-07-13T06:42:03;7.47;;;4.28;;
60896;SDS011;46749;32.932;-117.130;2023-07-13T06:44:30;6.30;;;3.22;;
60896;SDS011;46749;32.932;-117.130;2023-07-13T06:46:56;8.35;;;3.83;;
60896;SDS011;46749;32.932;-117.130;2023-07-13T06:49:23;8.05;;;3.45;;
60896;SDS011;46749;32.932;-117.130;2023-07-13T06:51:49;8.65;;;3.45;;
60896;SDS011;46749;32.932;-117.130;2023-07-13T06:54:15;7.20;;;3.35;;
60896;SDS011;46749;32.932;-117.130;2023-07-13T06:56:41;6.55;;;3.13;;
60896;SDS011;46749;32.932;-117.130;2023-07-13T06:59:07;6.68;;;3.25;;
60896;SDS011;46749;32.932;-117.130;2023-07-13T07:01:34;8.20;;;3.55;;
60896;SDS011;46749;32.932;-117.130;2023-07-13T07:04:00;5.88;;;2.85;;
60896;SDS011;46749;32.932;-117.130;2023-07-13T07:06:26;5.15;;;2.55;;
60896;SDS011;46749;32.932;-117.130;2023-07-13T07:08:53;8.05;;;3.55;;
60896;SDS011;46749;32.932;-117.130;2023-07-13T07:11:20;6.28;;;2.97;;
60896;SDS011;46749;32.932;-117.130;2023-07-13T07:13:48;5.85;;;2.78;;
60896;SDS011;46749;32.932;-117.130;2023-07-13T07:16:16;4.90;;;2.70;;
60896;SDS011;46749;32.932;-117.130;2023-07-13T07:18:42;5.13;;;2.47;;
60896;SDS011;46749;32.932;-117.130;2023-07-13T07:21:08;4.35;;;2.28;;
60896;SDS011;46749;32.932;-117.130;2023-07-13T07:23:35;5.45;;;2.35;;
60896;SDS011;46749;32.932;-117.130;2023-07-13T07:26:01;5.78;;;2.75;;
60896;SDS011;46749;32.932;-117.130;2023-07-13T07:28:27;3.67;;;2.30;;
60896;SDS011;46749;32.932;-117.130;2023-07-13T07:30:54;5.18;;;2.25;;
60896;SDS011;46749;32.932;-117.130;2023-07-13T07:33:21;8.40;;;2.83;;
60896;SDS011;46749;32.932;-117.130;2023-07-13T07:35:48;7.13;;;2.45;;
60896;SDS011;46749;32.932;-117.130;2023-07-13T07:38:14;3.53;;;1.77;;
60896;SDS011;46749;32.932;-117.130;2023-07-13T07:40:41;5.25;;;2.30;;
60896;SDS011;46749;32.932;-117.130;2023-07-13T07:43:08;5.82;;;2.40;;
60896;SDS011;46749;32.932;-117.130;2023-07-13T07:45:35;3.45;;;2.15;;
60896;SDS011;46749;32.932;-117.130;2023-07-13T07:48:03;3.60;;;1.88;;
60896;SDS011;46749;32.932;-117.130;2023-07-13T07:50:30;5.18;;;2.00;;
60896;SDS011;46749;32.932;-117.130;2023-07-13T07:52:57;5.25;;;2.50;;
60896;SDS011;46749;32.932;-117.130;2023-07-13T07:55:24;4.57;;;2.22;;
60896;SDS011;46749;32.932;-117.130;2023-07-13T07:57:54;4.80;;;2.42;;
60896;SDS011;46749;32.932;-117.130;2023-07-13T08:00:22;3.67;;;1.88;;
60896;SDS011;46749;32.932;-117.130;2023-07-13T08:02:48;5.65;;;2.15;;
60896;SDS011;46749;32.932;-117.130;2023-07-13T08:05:14;5.82;;;2.00;;
60896;SDS011;46749;32.932;-117.130;2023-07-13T08:07:42;4.53;;;1.80;;
60896;SDS011;46749;32.932;-117.130;2023-07-13T08:10:09;2.80;;;1.60;;
60896;SDS011;46749;32.932;-117.130;2023-07-13T08:12:36;3.67;;;2.20;;
60896;SDS011;46749;32.932;-117.130;2023-07-13T08:15:03;4.53;;;1.85;;
60896;SDS011;46749;32.932;-117.130;2023-07-13T08:17:30;4.65;;;1.65;;
60896;SDS011;46749;32.932;-117.130;2023-07-13T08:19:56;2.55;;;1.45;;
60896;SDS011;46749;32.932;-117.130;2023-07-13T08:22:23;4.57;;;1.90;;
60896;SDS011;46749;32.932;-117.130;2023-07-13T08:24:49;3.65;;;1.60;;
60896;SDS011;46749;32.932;-117.130;2023-07-13T08:27:21;4.18;;;2.00;;
60896;SDS011;46749;32.932;-117.130;2023-07-13T08:29:51;3.35;;;1.40;;
60896;SDS011;46749;32.932;-117.130;2023-07-13T08:32:19;3.05;;;1.45;;
60896;SDS011;46749;32.932;-117.130;2023-07-13T08:34:46;3.30;;;1.35;;
60896;SDS011;46749;32.932;-117.130;2023-07-13T08:37:13;3.67;;;1.52;;
60896;SDS011;46749;32.932;-117.130;2023-07-13T08:39:39;3.28;;;1.55;;
60896;SDS011;46749;32.932;-117.130;2023-07-13T08:42:16;2.55;;;1.15;;
60896;SDS011;46749;32.932;-117.130;2023-07-13T08:45:19;3.08;;;1.50;;
60896;SDS011;46749;32.932;-117.130;2023-07-13T08:48:20;3.17;;;1.20;;
60896;SDS011;46749;32.932;-117.130;2023-07-13T08:53:19;3.22;;;1.30;;
60896;SDS011;46749;32.932;-117.130;2023-07-13T08:55:46;4.82;;;1.30;;
60896;SDS011;46749;32.932;-117.130;2023-07-13T08:58:23;4.00;;;1.35;;
60896;SDS011;46749;32.932;-117.130;2023-07-13T09:06:34;2.87;;;1.30;;
60896;SDS011;46749;32.932;-117.130;2023-07-13T09:09:10;2.88;;;1.20;;
60896;SDS011;46749;32.932;-117.130;2023-07-13T09:14:48;3.40;;;1.35;;
60896;SDS011;46749;32.932;-117.130;2023-07-13T09:17:33;3.67;;;1.30;;
60896;SDS011;46749;32.932;-117.130;2023-07-13T09:20:42;2.17;;;1.00;;
60896;SDS011;46749;32.932;-117.130;2023-07-13T09:23:15;2.63;;;1.05;;
60896;SDS011;46749;32.932;-117.130;2023-07-13T09:25:45;2.40;;;1.02;;
60896;SDS011;46749;32.932;-117.130;2023-07-13T09:28:19;2.75;;;1.30;;
60896;SDS011;46749;32.932;-117.130;2023-07-13T09:33:31;3.55;;;1.20;;
60896;SDS011;46749;32.932;-117.130;2023-07-13T09:35:59;2.50;;;1.10;;
60896;SDS011;46749;32.932;-117.130;2023-07-13T09:38:28;3.72;;;1.42;;
60896;SDS011;46749;32.932;-117.130;2023-07-13T09:46:59;1.80;;;0.90;;
60896;SDS011;46749;32.932;-117.130;2023-07-13T09:49:26;2.55;;;1.20;;
60896;SDS011;46749;32.932;-117.130;2023-07-13T09:51:58;2.63;;;1.15;;
60896;SDS011;46749;32.932;-117.130;2023-07-13T09:54:26;2.78;;;1.17;;
60896;SDS011;46749;32.932;-117.130;2023-07-13T09:56:55;2.15;;;1.10;;
60896;SDS011;46749;32.932;-117.130;2023-07-13T09:59:24;2.80;;;1.10;;
60896;SDS011;46749;32.932;-117.130;2023-07-13T10:01:54;2.28;;;1.00;;
60896;SDS011;46749;32.932;-117.130;2023-07-13T10:04:27;2.28;;;1.10;;
60896;SDS011;46749;32.932;-117.130;2023-07-13T10:07:11;2.70;;;1.40;;
60896;SDS011;46749;32.932;-117.130;2023-07-13T10:09:38;2.13;;;0.88;;
60896;SDS011;46749;32.932;-117.130;2023-07-13T10:12:13;2.25;;;1.17;;
60896;SDS011;46749;32.932;-117.130;2023-07-13T10:14:41;2.03;;;1.02;;
60896;SDS011;46749;32.932;-117.130;2023-07-13T10:17:08;1.92;;;1.02;;
60896;SDS011;46749;32.932;-117.130;2023-07-13T10:19:39;1.83;;;0.80;;
60896;SDS011;46749;32.932;-117.130;2023-07-13T10:24:38;2.45;;;0.80;;
60896;SDS011;46749;32.932;-117.130;2023-07-13T10:29:48;1.77;;;1.00;;
60896;SDS011;46749;32.932;-117.130;2023-07-13T10:32:21;2.22;;;0.90;;
60896;SDS011;46749;32.932;-117.130;2023-07-13T10:34:49;2.35;;;1.00;;
60896;SDS011;46749;32.932;-117.130;2023-07-13T10:38:00;1.75;;;0.82;;
60896;SDS011;46749;32.932;-117.130;2023-07-13T10:40:23;1.92;;;1.40;;
60896;SDS011;46749;32.932;-117.130;2023-07-13T10:42:55;0.98;;;0.60;;
60896;SDS011;46749;32.932;-117.130;2023-07-13T10:45:33;2.13;;;0.90;;
60896;SDS011;46749;32.932;-117.130;2023-07-13T10:50:28;2.17;;;1.00;;
60896;SDS011;46749;32.932;-117.130;2023-07-13T10:53:03;2.17;;;0.90;;
60896;SDS011;46749;32.932;-117.130;2023-07-13T10:58:20;1.45;;;0.90;;
60896;SDS011;46749;32.932;-117.130;2023-07-13T11:04:17;2.33;;;0.90;;
60896;SDS011;46749;32.932;-117.130;2023-07-13T11:08:55;1.67;;;0.85;;
60896;SDS011;46749;32.932;-117.130;2023-07-13T11:18:51;1.27;;;0.60;;
60896;SDS011;46749;32.932;-117.130;2023-07-13T11:21:33;1.73;;;1.00;;
60896;SDS011;46749;32.932;-117.130;2023-07-13T11:24:04;1.83;;;0.93;;
60896;SDS011;46749;32.932;-117.130;2023-07-13T11:31:55;1.15;;;0.70;;
60896;SDS011;46749;32.932;-117.130;2023-07-13T11:34:30;1.98;;;0.90;;
60896;SDS011;46749;32.932;-117.130;2023-07-13T11:37:00;1.55;;;0.80;;
60896;SDS011;46749;32.932;-117.130;2023-07-13T11:39:31;2.17;;;0.82;;
60896;SDS011;46749;32.932;-117.130;2023-07-13T11:42:05;2.05;;;0.90;;
60896;SDS011;46749;32.932;-117.130;2023-07-13T11:44:34;1.38;;;0.75;;
60896;SDS011;46749;32.932;-117.130;2023-07-13T11:47:10;2.35;;;0.80;;
60896;SDS011;46749;32.932;-117.130;2023-07-13T11:49:43;2.38;;;0.90;;
60896;SDS011;46749;32.932;-117.130;2023-07-13T11:52:16;2.17;;;0.70;;
60896;SDS011;46749;32.932;-117.130;2023-07-13T11:54:48;0.88;;;0.68;;
60896;SDS011;46749;32.932;-117.130;2023-07-13T11:57:24;2.25;;;0.68;;
60896;SDS011;46749;32.932;-117.130;2023-07-13T12:00:44;1.80;;;0.77;;
60896;SDS011;46749;32.932;-117.130;2023-07-13T12:02:52;2.30;;;0.80;;
60896;SDS011;46749;32.932;-117.130;2023-07-13T12:05:21;1.25;;;0.68;;
60896;SDS011;46749;32.932;-117.130;2023-07-13T12:07:47;1.63;;;0.70;;
60896;SDS011;46749;32.932;-117.130;2023-07-13T12:10:19;2.10;;;0.95;;
60896;SDS011;46749;32.932;-117.130;2023-07-13T12:15:20;1.85;;;0.88;;
60896;SDS011;46749;32.932;-117.130;2023-07-13T12:17:48;1.10;;;0.60;;
60896;SDS011;46749;32.932;-117.130;2023-07-13T12:20:19;1.52;;;0.73;;
60896;SDS011;46749;32.932;-117.130;2023-07-13T12:22:49;1.98;;;0.68;;
60896;SDS011;46749;32.932;-117.130;2023-07-13T12:25:16;2.33;;;0.70;;
60896;SDS011;46749;32.932;-117.130;2023-07-13T12:27:47;0.93;;;0.70;;
60896;SDS011;46749;32.932;-117.130;2023-07-13T12:30:23;1.30;;;0.60;;
60896;SDS011;46749;32.932;-117.130;2023-07-13T12:32:59;1.83;;;0.70;;
60896;SDS011;46749;32.932;-117.130;2023-07-13T12:35:28;1.10;;;0.80;;
60896;SDS011;46749;32.932;-117.130;2023-07-13T12:37:57;1.38;;;0.60;;
60896;SDS011;46749;32.932;-117.130;2023-07-13T12:40:27;0.77;;;0.60;;
60896;SDS011;46749;32.932;-117.130;2023-07-13T12:42:58;0.57;;;0.55;;
60896;SDS011;46749;32.932;-117.130;2023-07-13T12:45:29;1.80;;;0.60;;
60896;SDS011;46749;32.932;-117.130;2023-07-13T12:47:57;1.35;;;0.77;;
60896;SDS011;46749;32.932;-117.130;2023-07-13T12:50:29;1.20;;;0.70;;
60896;SDS011;46749;32.932;-117.130;2023-07-13T12:53:04;0.90;;;0.68;;
60896;SDS011;46749;32.932;-117.130;2023-07-13T12:55:42;1.60;;;0.65;;
60896;SDS011;46749;32.932;-117.130;2023-07-13T12:58:17;1.80;;;0.60;;
60896;SDS011;46749;32.932;-117.130;2023-07-13T13:00:55;0.80;;;0.60;;
60896;SDS011;46749;32.932;-117.130;2023-07-13T13:03:26;0.82;;;0.50;;
60896;SDS011;46749;32.932;-117.130;2023-07-13T13:05:59;1.70;;;0.60;;
60896;SDS011;46749;32.932;-117.130;2023-07-13T13:08:28;0.85;;;0.60;;
60896;SDS011;46749;32.932;-117.130;2023-07-13T13:10:55;1.40;;;0.65;;
60896;SDS011;46749;32.932;-117.130;2023-07-13T13:13:21;1.00;;;0.50;;
60896;SDS011;46749;32.932;-117.130;2023-07-13T13:15:48;1.63;;;0.70;;
60896;SDS011;46749;32.932;-117.130;2023-07-13T13:18:15;1.17;;;0.70;;
60896;SDS011;46749;32.932;-117.130;2023-07-13T13:20:46;1.42;;;0.60;;
60896;SDS011;46749;32.932;-117.130;2023-07-13T13:23:13;1.40;;;0.70;;
60896;SDS011;46749;32.932;-117.130;2023-07-13T13:25:43;0.95;;;0.70;;
60896;SDS011;46749;32.932;-117.130;2023-07-13T13:28:15;1.13;;;0.63;;
60896;SDS011;46749;32.932;-117.130;2023-07-13T13:30:42;1.48;;;0.50;;
60896;SDS011;46749;32.932;-117.130;2023-07-13T13:33:14;1.05;;;0.70;;
60896;SDS011;46749;32.932;-117.130;2023-07-13T13:35:42;1.48;;;0.50;;
60896;SDS011;46749;32.932;-117.130;2023-07-13T13:38:16;1.10;;;0.90;;
60896;SDS011;46749;32.932;-117.130;2023-07-13T13:43:15;2.22;;;0.90;;
60896;SDS011;46749;32.932;-117.130;2023-07-13T13:45:46;0.95;;;0.60;;
60896;SDS011;46749;32.932;-117.130;2023-07-13T13:48:19;1.35;;;0.60;;
60896;SDS011;46749;32.932;-117.130;2023-07-13T13:50:55;0.70;;;0.40;;
60896;SDS011;46749;32.932;-117.130;2023-07-13T13:53:22;1.60;;;0.60;;
60896;SDS011;46749;32.932;-117.130;2023-07-13T13:55:49;0.88;;;0.50;;
60896;SDS011;46749;32.932;-117.130;2023-07-13T13:58:17;2.08;;;0.60;;
60896;SDS011;46749;32.932;-117.130;2023-07-13T14:00:47;1.38;;;0.50;;
60896;SDS011;46749;32.932;-117.130;2023-07-13T14:03:14;0.70;;;0.40;;
60896;SDS011;46749;32.932;-117.130;2023-07-13T14:05:43;0.80;;;0.47;;
60896;SDS011;46749;32.932;-117.130;2023-07-13T14:08:16;1.02;;;0.60;;
60896;SDS011;46749;32.932;-117.130;2023-07-13T14:10:45;0.68;;;0.60;;
60896;SDS011;46749;32.932;-117.130;2023-07-13T14:13:25;1.35;;;0.70;;
60896;SDS011;46749;32.932;-117.130;2023-07-13T14:15:54;1.05;;;0.50;;
60896;SDS011;46749;32.932;-117.130;2023-07-13T14:18:20;1.48;;;0.55;;
60896;SDS011;46749;32.932;-117.130;2023-07-13T14:20:47;0.50;;;0.40;;
60896;SDS011;46749;32.932;-117.130;2023-07-13T14:23:14;0.60;;;0.50;;
60896;SDS011;46749;32.932;-117.130;2023-07-13T14:25:42;0.70;;;0.40;;
60896;SDS011;46749;32.932;-117.130;2023-07-13T14:28:22;0.95;;;0.63;;
60896;SDS011;46749;32.932;-117.130;2023-07-13T14:30:50;0.70;;;0.52;;
60896;SDS011;46749;32.932;-117.130;2023-07-13T14:33:17;0.75;;;0.32;;
60896;SDS011;46749;32.932;-117.130;2023-07-13T14:35:44;0.68;;;0.50;;
60896;SDS011;46749;32.932;-117.130;2023-07-13T14:38:14;0.50;;;0.40;;
60896;SDS011;46749;32.932;-117.130;2023-07-13T14:40:42;0.52;;;0.35;;
60896;SDS011;46749;32.932;-117.130;2023-07-13T14:43:09;1.27;;;0.55;;
60896;SDS011;46749;32.932;-117.130;2023-07-13T14:45:48;1.25;;;0.60;;
60896;SDS011;46749;32.932;-117.130;2023-07-13T14:50:44;0.47;;;0.47;;
60896;SDS011;46749;32.932;-117.130;2023-07-13T14:53:12;0.80;;;0.50;;
60896;SDS011;46749;32.932;-117.130;2023-07-13T14:55:39;0.55;;;0.45;;
60896;SDS011;46749;32.932;-117.130;2023-07-13T14:58:05;0.40;;;0.40;;
60896;SDS011;46749;32.932;-117.130;2023-07-13T15:00:32;0.90;;;0.50;;
60896;SDS011;46749;32.932;-117.130;2023-07-13T15:02:59;1.38;;;0.52;;
60896;SDS011;46749;32.932;-117.130;2023-07-13T15:05:27;1.27;;;0.60;;
60896;SDS011;46749;32.932;-117.130;2023-07-13T15:07:57;0.75;;;0.47;;
60896;SDS011;46749;32.932;-117.130;2023-07-13T15:10:26;0.75;;;0.40;;
60896;SDS011;46749;32.932;-117.130;2023-07-13T15:13:01;0.98;;;0.40;;
60896;SDS011;46749;32.932;-117.130;2023-07-13T15:15:40;0.32;;;0.30;;
60896;SDS011;46749;32.932;-117.130;2023-07-13T15:18:09;0.80;;;0.40;;
60896;SDS011;46749;32.932;-117.130;2023-07-13T15:20:37;0.63;;;0.40;;